Time;durP1;ratioP1;P1;durP2;ratioP2;P2;SDS_P1;SDS_P2;PMS_P1;PMS_P2;Temp;Humidity;BMP_temperature;BMP_pressure;BME280_temperature;BME280_humidity;BME280_pressure;Samples;Min_cycle;Max_cycle;Signal;HPM_P1;HPM_P2
2023/03/30 00:01:33;;;;;;;17.38;11.20;;;11.40;99.90;;;;;;5037389;28;20051;-61
2023/03/30 00:03:59;;;;;;;20.65;11.05;;;11.40;99.90;;;;;;5036158;28;20081;-61
2023/03/30 00:06:25;;;;;;;16.58;10.77;;;11.30;99.90;;;;;;5036679;28;20577;-61
2023/03/30 00:08:57;;;;;;;15.02;10.27;;;11.30;99.90;;;;;;5037284;28;20525;-61
2023/03/30 00:11:23;;;;;;;15.30;10.02;;;11.30;99.90;;;;;;5035750;28;20073;-61
2023/03/30 00:13:50;;;;;;;17.23;11.23;;;11.30;99.90;;;;;;5037113;28;20102;-61
2023/03/30 00:16:16;;;;;;;15.48;10.07;;;11.30;99.90;;;;;;5035998;28;20068;-61
2023/03/30 00:18:43;;;;;;;14.48;9.57;;;11.30;99.90;;;;;;5036307;28;20041;-60
2023/03/30 00:21:10;;;;;;;16.83;10.45;;;11.30;99.90;;;;;;5036201;28;20494;-61
2023/03/30 00:23:37;;;;;;;13.55;10.13;;;11.30;99.90;;;;;;5035547;28;20080;-61
2023/03/30 00:26:04;;;;;;;14.02;9.70;;;11.40;99.90;;;;;;5053470;28;20093;-61
2023/03/30 00:28:29;;;;;;;14.45;10.50;;;11.40;99.90;;;;;;5054655;28;20037;-61
2023/03/30 00:30:56;;;;;;;15.52;9.63;;;11.30;99.90;;;;;;5036994;28;20041;-61
2023/03/30 00:33:21;;;;;;;16.00;10.13;;;11.30;99.90;;;;;;5053121;28;20037;-61
2023/03/30 00:35:55;;;;;;;17.65;8.95;;;11.30;99.90;;;;;;5036612;28;20389;-60
2023/03/30 00:38:21;;;;;;;16.52;8.85;;;11.40;99.90;;;;;;5054087;28;20051;-61
2023/03/30 00:40:55;;;;;;;13.18;8.73;;;11.40;99.90;;;;;;5036001;28;20452;-60
2023/03/30 00:43:21;;;;;;;12.40;7.80;;;11.40;99.90;;;;;;5053754;28;20064;-61
2023/03/30 00:45:47;;;;;;;17.40;8.68;;;11.40;99.90;;;;;;5032336;28;20041;-60
2023/03/30 00:48:14;;;;;;;11.20;8.73;;;11.50;99.90;;;;;;5041722;28;20075;-61
2023/03/30 00:50:58;;;;;;;15.60;9.13;;;11.50;99.90;;;;;;5023843;28;20464;-61
2023/03/30 00:53:27;;;;;;;12.45;7.75;;;11.60;99.90;;;;;;4999086;28;20037;-61
2023/03/30 00:55:53;;;;;;;15.60;8.38;;;11.70;99.90;;;;;;5016508;28;20076;-61
2023/03/30 00:58:21;;;;;;;12.65;8.18;;;11.70;99.90;;;;;;5015941;28;20040;-60
2023/03/30 01:00:47;;;;;;;13.55;7.75;;;11.70;99.90;;;;;;5016041;28;20445;-61
2023/03/30 01:03:22;;;;;;;17.20;7.72;;;11.80;99.90;;;;;;5016057;28;20442;-61
2023/03/30 01:05:48;;;;;;;15.95;7.65;;;11.80;99.90;;;;;;5000219;28;20038;-61
2023/03/30 01:08:15;;;;;;;12.07;6.80;;;11.90;99.90;;;;;;4999202;28;20048;-61
2023/03/30 01:10:42;;;;;;;11.70;6.55;;;11.90;99.90;;;;;;5016283;28;20478;-61
2023/03/30 01:13:09;;;;;;;15.70;7.90;;;11.90;99.90;;;;;;5033612;28;20060;-61
2023/03/30 01:15:44;;;;;;;15.45;8.05;;;11.90;99.90;;;;;;5017406;28;20391;-61
2023/03/30 01:18:12;;;;;;;13.65;7.20;;;11.90;99.90;;;;;;5035123;28;20486;-61
2023/03/30 01:21:15;;;;;;;12.63;7.93;;;11.90;99.90;;;;;;5035623;28;20048;-61
2023/03/30 01:24:26;;;;;;;14.30;7.88;;;11.90;99.90;;;;;;5035808;28;20128;-61
2023/03/30 01:27:00;;;;;;;11.20;7.25;;;11.90;99.90;;;;;;5035491;28;20040;-61
2023/03/30 01:29:40;;;;;;;11.30;6.75;;;11.90;99.90;;;;;;5052621;28;20530;-60
2023/03/30 01:32:30;;;;;;;12.77;7.05;;;11.90;99.90;;;;;;5035148;28;20386;-61
2023/03/30 01:35:11;;;;;;;10.80;6.70;;;11.90;99.90;;;;;;5027619;28;20482;-61
2023/03/30 01:38:15;;;;;;;12.35;6.75;;;11.90;99.90;;;;;;5015772;28;20045;-61
2023/03/30 01:40:50;;;;;;;11.15;7.13;;;11.90;99.90;;;;;;4985788;28;20132;-61
2023/03/30 01:43:37;;;;;;;13.05;7.55;;;11.80;99.90;;;;;;5014410;28;20066;-61
2023/03/30 01:46:40;;;;;;;11.75;6.88;;;11.80;99.90;;;;;;5033942;28;20494;-61
2023/03/30 01:49:19;;;;;;;12.55;7.05;;;11.80;99.90;;;;;;5019540;28;20056;-61
2023/03/30 01:52:09;;;;;;;11.07;6.32;;;11.70;99.90;;;;;;5033320;28;20045;-61
2023/03/30 01:54:40;;;;;;;10.85;6.00;;;11.80;99.90;;;;;;5015705;28;20048;-61
2023/03/30 01:57:24;;;;;;;11.02;6.22;;;11.80;99.90;;;;;;5029253;28;20162;-61
2023/03/30 02:00:19;;;;;;;12.35;5.85;;;11.80;99.90;;;;;;5053099;28;20041;-61
2023/03/30 02:02:53;;;;;;;11.68;5.93;;;11.80;99.90;;;;;;5031890;28;20053;-61
2023/03/30 02:05:21;;;;;;;11.80;6.20;;;11.70;99.90;;;;;;5051465;28;20048;-61
2023/03/30 02:08:00;;;;;;;13.00;7.05;;;11.70;99.90;;;;;;5035056;28;20286;-61
2023/03/30 02:10:30;;;;;;;10.85;6.32;;;11.70;99.90;;;;;;5033739;28;20041;-61
2023/03/30 02:12:58;;;;;;;7.97;5.32;;;11.70;99.90;;;;;;5034795;28;20393;-61
2023/03/30 02:15:27;;;;;;;11.98;5.97;;;11.70;99.90;;;;;;5052016;28;20033;-61
2023/03/30 02:17:52;;;;;;;10.70;4.88;;;11.70;99.90;;;;;;5052154;28;20065;-61
2023/03/30 02:20:18;;;;;;;9.52;5.45;;;11.70;99.90;;;;;;5052310;28;20130;-60
2023/03/30 02:22:44;;;;;;;11.77;5.60;;;11.70;99.90;;;;;;5052793;28;20044;-61
2023/03/30 02:25:11;;;;;;;9.57;5.05;;;11.70;99.90;;;;;;5020437;28;20116;-61
2023/03/30 02:27:40;;;;;;;7.47;4.75;;;11.70;99.90;;;;;;5014847;28;20526;-60
2023/03/30 02:30:07;;;;;;;12.43;5.40;;;11.70;99.90;;;;;;5032004;28;20045;-61
2023/03/30 02:32:53;;;;;;;13.68;4.78;;;11.70;99.90;;;;;;5014117;28;20046;-61
2023/03/30 02:35:50;;;;;;;12.30;4.95;;;11.70;99.90;;;;;;5014259;28;20041;-61
2023/03/30 02:39:00;;;;;;;7.85;4.55;;;11.70;99.90;;;;;;5014291;28;20441;-61
2023/03/30 02:41:32;;;;;;;10.65;4.47;;;11.60;99.90;;;;;;4982083;28;20072;-62
2023/03/30 02:44:13;;;;;;;10.60;4.57;;;11.70;99.90;;;;;;5014974;28;20049;-61
2023/03/30 02:46:51;;;;;;;12.73;4.30;;;11.70;99.90;;;;;;5023614;28;20036;-61
2023/03/30 02:49:26;;;;;;;12.32;4.38;;;11.70;99.90;;;;;;5017678;28;20440;-61
2023/03/30 02:52:08;;;;;;;12.63;4.65;;;11.70;99.90;;;;;;5052339;28;20049;-61
2023/03/30 02:54:49;;;;;;;11.85;5.03;;;11.70;99.90;;;;;;5033615;28;20083;-61
2023/03/30 02:57:26;;;;;;;11.00;3.92;;;11.70;99.90;;;;;;5018649;28;20069;-61
2023/03/30 03:00:07;;;;;;;11.20;4.50;;;11.70;99.90;;;;;;5013720;28;20056;-61
2023/03/30 03:02:43;;;;;;;15.02;4.97;;;11.60;99.90;;;;;;5032184;28;20123;-61
2023/03/30 03:05:11;;;;;;;12.98;4.45;;;11.60;99.90;;;;;;4997540;28;20433;-61
2023/03/30 03:07:39;;;;;;;7.95;3.70;;;11.60;99.90;;;;;;4997559;28;20049;-61
2023/03/30 03:10:06;;;;;;;10.85;4.22;;;11.60;99.90;;;;;;5031756;28;20043;-61
2023/03/30 03:12:33;;;;;;;10.50;4.60;;;11.50;99.90;;;;;;5032063;28;20438;-61
2023/03/30 03:15:00;;;;;;;11.65;4.30;;;11.50;99.90;;;;;;5013646;28;20048;-61
2023/03/30 03:17:28;;;;;;;12.45;4.95;;;11.50;99.90;;;;;;5013992;28;20143;-61
2023/03/30 03:19:54;;;;;;;13.13;4.18;;;11.40;99.90;;;;;;5014230;28;20482;-61
2023/03/30 03:22:20;;;;;;;11.05;5.07;;;11.40;99.90;;;;;;5030763;28;20033;-60
2023/03/30 03:24:45;;;;;;;9.05;3.83;;;11.40;99.90;;;;;;5014367;28;20449;-61
2023/03/30 03:27:11;;;;;;;8.77;4.40;;;11.40;99.90;;;;;;5013698;28;20037;-61
2023/03/30 03:29:36;;;;;;;12.27;4.20;;;11.40;99.90;;;;;;5013535;28;20045;-61
2023/03/30 03:32:02;;;;;;;9.55;4.22;;;11.40;99.90;;;;;;5031632;28;20041;-61
2023/03/30 03:34:30;;;;;;;13.10;4.70;;;11.40;99.90;;;;;;5031482;28;20040;-61
2023/03/30 03:36:57;;;;;;;12.20;5.47;;;11.40;99.90;;;;;;5031274;28;20041;-61
2023/03/30 03:39:23;;;;;;;12.48;5.30;;;11.40;99.90;;;;;;5013799;28;20034;-61
2023/03/30 03:41:49;;;;;;;9.35;4.30;;;11.40;99.90;;;;;;5030841;28;20133;-61
2023/03/30 03:44:17;;;;;;;15.65;5.47;;;11.40;99.90;;;;;;5013662;28;20052;-61
2023/03/30 03:46:43;;;;;;;11.55;5.28;;;11.40;99.90;;;;;;5014088;28;20061;-61
2023/03/30 03:49:09;;;;;;;14.35;5.43;;;11.40;99.90;;;;;;5030258;28;20046;-61
2023/03/30 03:51:34;;;;;;;13.73;5.68;;;11.30;99.90;;;;;;5013961;28;20050;-61
2023/03/30 03:54:00;;;;;;;10.43;5.00;;;11.40;99.90;;;;;;5014088;28;20041;-61
2023/03/30 03:56:26;;;;;;;11.32;4.40;;;11.30;99.90;;;;;;5013190;28;20053;-61
2023/03/30 03:58:52;;;;;;;12.88;4.75;;;11.30;99.90;;;;;;5034930;28;20539;-61
2023/03/30 04:01:19;;;;;;;8.90;4.00;;;11.30;99.90;;;;;;5034710;28;20048;-61
2023/03/30 04:03:44;;;;;;;12.35;5.43;;;11.30;99.90;;;;;;5049759;28;20045;-61
2023/03/30 04:06:10;;;;;;;11.85;5.03;;;11.30;99.90;;;;;;5036467;28;20056;-61
2023/03/30 04:08:36;;;;;;;10.73;4.50;;;11.30;99.90;;;;;;5055218;28;20166;-61
2023/03/30 04:11:06;;;;;;;11.80;4.93;;;11.20;99.90;;;;;;5019923;28;20045;-61
2023/03/30 04:13:33;;;;;;;15.38;6.25;;;11.20;99.90;;;;;;5055160;28;20043;-61
2023/03/30 04:16:00;;;;;;;12.15;4.55;;;11.20;99.90;;;;;;5036825;28;20064;-61
2023/03/30 04:18:32;;;;;;;12.80;5.13;;;11.20;99.90;;;;;;5019660;28;20088;-61
2023/03/30 04:21:01;;;;;;;13.82;4.70;;;11.20;99.90;;;;;;5055227;28;20049;-61
2023/03/30 04:23:30;;;;;;;11.63;4.53;;;11.20;99.90;;;;;;5054466;28;20497;-61
2023/03/30 04:26:03;;;;;;;12.65;5.60;;;11.20;99.90;;;;;;5036278;28;20394;-61
2023/03/30 04:28:31;;;;;;;12.68;4.50;;;11.20;99.90;;;;;;5019705;28;20067;-61
2023/03/30 04:31:03;;;;;;;10.27;4.70;;;11.20;99.90;;;;;;5036773;28;20040;-61
2023/03/30 04:33:29;;;;;;;12.35;4.07;;;11.10;99.90;;;;;;5036772;28;20120;-61
2023/03/30 04:35:55;;;;;;;12.63;3.88;;;11.10;99.90;;;;;;5054769;28;20079;-61
2023/03/30 04:38:21;;;;;;;12.25;3.75;;;11.10;99.90;;;;;;5052542;28;20063;-61
2023/03/30 04:40:54;;;;;;;8.63;3.58;;;11.20;99.90;;;;;;5036446;28;20478;-61
2023/03/30 04:43:21;;;;;;;12.77;3.88;;;11.20;99.90;;;;;;5053781;28;20102;-61
2023/03/30 04:45:56;;;;;;;13.82;4.43;;;11.20;99.90;;;;;;5053845;28;20048;-61
2023/03/30 04:48:23;;;;;;;10.30;3.63;;;11.30;99.90;;;;;;5036541;28;20402;-61
2023/03/30 04:50:49;;;;;;;15.25;4.55;;;11.30;99.90;;;;;;5036740;28;20374;-61
2023/03/30 04:53:16;;;;;;;12.75;4.03;;;11.30;99.90;;;;;;5052592;28;20040;-61
2023/03/30 04:55:47;;;;;;;14.05;3.65;;;11.30;99.90;;;;;;5054015;28;20037;-61
2023/03/30 04:58:14;;;;;;;9.18;3.63;;;11.30;99.90;;;;;;5035870;28;20044;-61
2023/03/30 05:00:40;;;;;;;10.02;3.78;;;11.30;99.90;;;;;;5053275;28;20078;-61
2023/03/30 05:03:06;;;;;;;13.30;3.85;;;11.30;99.90;;;;;;5053715;28;20044;-61
2023/03/30 05:05:32;;;;;;;9.35;3.17;;;11.30;99.90;;;;;;5035998;28;20041;-61
2023/03/30 05:07:58;;;;;;;14.02;4.15;;;11.30;99.90;;;;;;5035348;28;20148;-61
2023/03/30 05:10:24;;;;;;;9.60;3.25;;;11.30;99.90;;;;;;5018409;28;20094;-61
2023/03/30 05:12:53;;;;;;;9.80;3.75;;;11.30;99.90;;;;;;5035981;28;20045;-61
2023/03/30 05:15:19;;;;;;;11.88;3.85;;;11.30;99.90;;;;;;5034640;28;20033;-61
2023/03/30 05:17:45;;;;;;;10.57;3.30;;;11.30;99.90;;;;;;5035942;28;20543;-61
2023/03/30 05:20:10;;;;;;;9.90;3.80;;;11.30;99.90;;;;;;5035339;28;20041;-61
2023/03/30 05:22:36;;;;;;;11.57;4.18;;;11.30;99.90;;;;;;5018805;28;20044;-61
2023/03/30 05:25:03;;;;;;;9.20;3.88;;;11.30;99.90;;;;;;5053489;28;20041;-60
2023/03/30 05:27:29;;;;;;;9.85;3.58;;;11.30;99.90;;;;;;5052599;28;20052;-61
2023/03/30 05:29:54;;;;;;;11.93;4.30;;;11.30;99.90;;;;;;5016360;28;20037;-60
2023/03/30 05:32:20;;;;;;;13.90;4.07;;;11.20;99.90;;;;;;4999004;28;20447;-61
2023/03/30 05:34:47;;;;;;;8.05;3.30;;;11.20;99.90;;;;;;5015222;28;20482;-61
2023/03/30 05:37:13;;;;;;;11.38;4.38;;;11.20;99.90;;;;;;4998861;28;20044;-61
2023/03/30 05:39:38;;;;;;;11.10;3.50;;;11.20;99.90;;;;;;5015744;28;20046;-61
2023/03/30 05:42:04;;;;;;;9.60;3.80;;;11.30;99.90;;;;;;5052024;28;20064;-61
2023/03/30 05:44:30;;;;;;;16.95;3.53;;;11.30;99.90;;;;;;5053380;28;20045;-61
2023/03/30 05:46:56;;;;;;;12.88;3.72;;;11.40;99.90;;;;;;5053418;28;20083;-61
2023/03/30 05:49:21;;;;;;;12.18;4.05;;;11.40;99.90;;;;;;5017582;28;20150;-61
2023/03/30 05:51:47;;;;;;;11.63;3.65;;;11.40;99.90;;;;;;5052775;28;20037;-61
2023/03/30 05:54:13;;;;;;;11.25;3.47;;;11.40;99.90;;;;;;5052369;28;20094;-61
2023/03/30 05:56:41;;;;;;;10.52;3.97;;;11.40;99.90;;;;;;5034622;28;20041;-61
2023/03/30 05:59:08;;;;;;;11.95;4.05;;;11.40;99.90;;;;;;5034528;28;20570;-61
2023/03/30 06:01:33;;;;;;;16.55;3.17;;;11.50;99.90;;;;;;5053047;28;20063;-61
2023/03/30 06:03:59;;;;;;;10.43;3.30;;;11.50;99.90;;;;;;5046955;28;20037;-61
2023/03/30 06:06:26;;;;;;;12.02;3.35;;;11.50;99.90;;;;;;5034303;28;20052;-61
2023/03/30 06:08:52;;;;;;;6.97;3.17;;;11.50;99.90;;;;;;5032465;28;20470;-61
2023/03/30 06:11:18;;;;;;;21.30;5.25;;;11.50;99.90;;;;;;5045994;28;20465;-61
2023/03/30 06:13:44;;;;;;;10.85;3.58;;;11.50;99.90;;;;;;5051071;28;20112;-61
2023/03/30 06:16:09;;;;;;;12.55;3.55;;;11.50;99.90;;;;;;5049472;28;20120;-61
2023/03/30 06:18:40;;;;;;;15.32;3.30;;;11.60;99.90;;;;;;5009457;28;20036;-61
2023/03/30 06:21:07;;;;;;;13.27;3.50;;;11.60;99.90;;;;;;5013539;28;20042;-61
2023/03/30 06:23:36;;;;;;;14.27;3.83;;;11.70;99.90;;;;;;5014680;28;20037;-61
2023/03/30 06:26:03;;;;;;;11.18;4.28;;;11.60;99.90;;;;;;5042308;28;20037;-61
2023/03/30 06:28:30;;;;;;;10.88;3.22;;;11.70;99.90;;;;;;5012413;28;20041;-61
2023/03/30 06:30:55;;;;;;;9.82;3.25;;;11.70;99.90;;;;;;5011265;28;20561;-61
2023/03/30 06:33:21;;;;;;;11.98;3.45;;;11.60;99.90;;;;;;5029228;28;20034;-61
2023/03/30 06:35:51;;;;;;;8.48;3.38;;;11.60;99.90;;;;;;5011549;28;20095;-61
2023/03/30 06:38:18;;;;;;;13.45;4.60;;;11.70;99.90;;;;;;5028373;28;20438;-61
2023/03/30 06:40:44;;;;;;;15.30;3.90;;;11.70;99.90;;;;;;5012032;28;20094;-61
2023/03/30 06:43:22;;;;;;;9.32;3.80;;;11.70;99.90;;;;;;5035872;28;20064;-60
2023/03/30 06:45:53;;;;;;;15.80;3.85;;;11.70;99.90;;;;;;5046556;28;20082;-61
2023/03/30 06:48:22;;;;;;;22.25;4.38;;;11.70;99.90;;;;;;5012074;28;20572;-61
2023/03/30 06:50:49;;;;;;;12.52;4.10;;;11.70;99.90;;;;;;5012265;28;20053;-61
2023/03/30 06:53:15;;;;;;;16.00;4.50;;;11.70;99.90;;;;;;5010850;28;20772;-61
2023/03/30 06:55:41;;;;;;;13.20;4.07;;;11.70;99.90;;;;;;5029365;28;20039;-61
2023/03/30 06:58:07;;;;;;;16.67;4.25;;;11.70;99.90;;;;;;5005116;28;20044;-61
2023/03/30 07:00:33;;;;;;;11.13;4.80;;;11.70;99.90;;;;;;5012806;28;20040;-61
2023/03/30 07:02:59;;;;;;;17.30;4.38;;;11.70;99.90;;;;;;5025918;28;20048;-61
2023/03/30 07:05:28;;;;;;;18.77;5.13;;;11.70;99.90;;;;;;5029145;28;20049;-61
2023/03/30 07:07:54;;;;;;;14.52;4.13;;;11.70;99.90;;;;;;5028714;28;20073;-61
2023/03/30 07:10:20;;;;;;;20.73;5.20;;;11.70;99.90;;;;;;4995070;28;20789;-61
2023/03/30 07:12:49;;;;;;;17.92;5.95;;;11.70;99.90;;;;;;5011780;28;20457;-61
2023/03/30 07:15:15;;;;;;;20.33;5.45;;;11.70;99.90;;;;;;5042229;28;20115;-61
2023/03/30 07:17:41;;;;;;;12.07;4.90;;;11.70;99.90;;;;;;5029748;28;20034;-61
2023/03/30 07:20:08;;;;;;;19.13;5.65;;;11.70;99.90;;;;;;5014331;28;20045;-61
2023/03/30 07:22:34;;;;;;;19.73;5.10;;;11.60;99.90;;;;;;5022208;28;20045;-61
2023/03/30 07:25:00;;;;;;;17.95;4.60;;;11.60;99.90;;;;;;5027654;28;20045;-61
2023/03/30 07:27:26;;;;;;;13.63;4.13;;;11.60;99.90;;;;;;5007825;28;20048;-61
2023/03/30 07:29:53;;;;;;;22.52;6.40;;;11.60;99.90;;;;;;5015385;28;20065;-61
2023/03/30 07:32:19;;;;;;;14.40;4.82;;;11.60;99.90;;;;;;5020413;28;20152;-61
2023/03/30 07:34:46;;;;;;;14.43;4.72;;;11.60;99.90;;;;;;4998666;28;20049;-61
2023/03/30 07:37:15;;;;;;;21.52;5.00;;;11.60;99.90;;;;;;5033974;28;20045;-61
2023/03/30 07:39:41;;;;;;;18.85;5.05;;;11.60;99.90;;;;;;5016011;28;20041;-61
2023/03/30 07:42:07;;;;;;;19.20;4.32;;;11.60;99.90;;;;;;5046530;28;20057;-61
2023/03/30 07:44:32;;;;;;;19.13;4.78;;;11.50;99.90;;;;;;5029586;28;20086;-61
2023/03/30 07:46:58;;;;;;;12.60;4.65;;;11.50;99.90;;;;;;5019055;28;20124;-61
2023/03/30 07:49:24;;;;;;;18.67;5.03;;;11.50;99.90;;;;;;5017325;28;20107;-61
2023/03/30 07:51:52;;;;;;;18.35;5.38;;;11.50;99.90;;;;;;5016519;28;20513;-61
2023/03/30 07:54:17;;;;;;;19.90;4.88;;;11.50;99.90;;;;;;4998402;28;20045;-61
2023/03/30 07:56:43;;;;;;;18.80;5.20;;;11.50;99.90;;;;;;5023040;28;20044;-61
2023/03/30 07:59:12;;;;;;;22.55;6.28;;;11.50;99.90;;;;;;5012441;28;20041;-61
2023/03/30 08:01:38;;;;;;;22.42;5.53;;;11.50;99.90;;;;;;5022423;28;20045;-61
2023/03/30 08:04:05;;;;;;;15.60;5.35;;;11.50;99.90;;;;;;5046682;28;20405;-61
2023/03/30 08:06:31;;;;;;;23.70;7.43;;;11.40;99.90;;;;;;5017555;28;20053;-61
2023/03/30 08:08:56;;;;;;;20.65;5.88;;;11.40;99.90;;;;;;5033582;28;20056;-61
2023/03/30 08:11:22;;;;;;;20.35;6.07;;;11.40;99.90;;;;;;5033156;28;20052;-61
2023/03/30 08:13:48;;;;;;;23.80;6.15;;;11.40;99.90;;;;;;5033520;28;20028;-61
2023/03/30 08:16:14;;;;;;;23.25;6.22;;;11.40;99.90;;;;;;5031766;28;20045;-61
2023/03/30 08:18:42;;;;;;;22.10;6.70;;;11.40;99.90;;;;;;5015475;28;20045;-61
2023/03/30 08:21:09;;;;;;;22.58;5.88;;;11.40;99.90;;;;;;5029722;28;20040;-61
2023/03/30 08:23:35;;;;;;;20.30;6.22;;;11.50;99.90;;;;;;4997842;28;20135;-61
2023/03/30 08:26:01;;;;;;;24.67;5.78;;;11.60;99.90;;;;;;5035841;28;20714;-61
2023/03/30 08:28:27;;;;;;;21.45;6.65;;;11.70;99.90;;;;;;5025305;28;20041;-61
2023/03/30 08:30:53;;;;;;;20.58;6.82;;;11.80;99.90;;;;;;5026176;28;20370;-61
2023/03/30 08:33:19;;;;;;;21.77;6.05;;;11.80;99.90;;;;;;5034915;28;20162;-61
2023/03/30 08:35:46;;;;;;;21.55;6.47;;;11.80;99.90;;;;;;5022864;28;20037;-61
2023/03/30 08:38:16;;;;;;;21.38;6.68;;;11.80;99.90;;;;;;5014416;28;20041;-61
2023/03/30 08:40:44;;;;;;;26.40;6.03;;;11.70;99.90;;;;;;5034552;28;20034;-61
2023/03/30 08:43:59;;;;;;;16.58;6.38;;;11.70;99.90;;;;;;5018892;28;20061;-61
2023/03/30 08:46:25;;;;;;;22.77;7.18;;;11.70;99.90;;;;;;5016673;28;20061;-61
2023/03/30 08:48:52;;;;;;;18.88;5.03;;;11.60;99.90;;;;;;5013900;28;20050;-61
2023/03/30 08:51:23;;;;;;;20.77;6.35;;;11.70;99.90;;;;;;5030552;28;20041;-61
2023/03/30 08:54:01;;;;;;;32.75;7.40;;;11.70;99.90;;;;;;5038191;28;20033;-61
2023/03/30 08:56:41;;;;;;;19.83;5.78;;;11.80;99.90;;;;;;5022063;28;20040;-61
2023/03/30 08:59:15;;;;;;;25.60;7.45;;;11.90;99.90;;;;;;5016658;28;20041;-61
2023/03/30 09:01:52;;;;;;;23.23;5.65;;;12.00;99.90;;;;;;5018373;28;20045;-61
2023/03/30 09:04:27;;;;;;;20.00;5.25;;;12.20;99.90;;;;;;5031775;28;20073;-61
2023/03/30 09:07:08;;;;;;;22.15;4.97;;;12.30;99.90;;;;;;5031664;28;20088;-61
2023/03/30 09:09:41;;;;;;;15.70;4.90;;;12.40;99.90;;;;;;5014482;28;20441;-61
2023/03/30 09:12:36;;;;;;;24.27;5.80;;;12.40;99.90;;;;;;5013359;28;20520;-61
2023/03/30 09:15:32;;;;;;;16.20;5.47;;;12.50;99.90;;;;;;5016774;28;20052;-61
2023/03/30 09:18:36;;;;;;;18.65;5.18;;;12.60;99.90;;;;;;5013959;28;20094;-62
2023/03/30 09:21:04;;;;;;;15.32;4.55;;;12.60;99.90;;;;;;5031919;28;20045;-61
2023/03/30 09:23:31;;;;;;;17.27;4.68;;;12.60;99.90;;;;;;5030432;28;20037;-61
2023/03/30 09:26:10;;;;;;;15.48;4.40;;;12.60;99.90;;;;;;5012255;28;20375;-62
2023/03/30 09:28:58;;;;;;;15.63;4.40;;;12.60;99.90;;;;;;5032574;28;20041;-62
2023/03/30 09:31:32;;;;;;;15.55;4.10;;;12.70;99.90;;;;;;5050947;28;20041;-62
2023/03/30 09:34:06;;;;;;;17.42;4.57;;;12.60;99.90;;;;;;5017777;28;20068;-61
2023/03/30 09:36:43;;;;;;;13.10;4.32;;;12.70;99.90;;;;;;5030550;28;20045;-61
2023/03/30 09:39:16;;;;;;;17.20;4.68;;;12.70;99.90;;;;;;5028658;28;20133;-61
2023/03/30 09:41:57;;;;;;;12.25;3.60;;;12.60;99.90;;;;;;5041637;28;20056;-62
2023/03/30 09:44:50;;;;;;;19.90;4.53;;;12.60;99.90;;;;;;5044909;28;20525;-62
2023/03/30 09:47:26;;;;;;;13.55;4.85;;;12.50;99.90;;;;;;5015277;28;20047;-62
2023/03/30 09:49:57;;;;;;;15.40;5.25;;;12.40;99.90;;;;;;5026668;28;20133;-61
2023/03/30 09:52:25;;;;;;;16.13;5.15;;;12.40;99.90;;;;;;5049876;28;20081;-62
2023/03/30 09:54:51;;;;;;;20.95;7.97;;;12.30;99.90;;;;;;5015179;28;20098;-62
2023/03/30 09:57:28;;;;;;;18.20;5.35;;;12.30;99.90;;;;;;5050009;28;20398;-61
2023/03/30 09:59:55;;;;;;;16.05;4.43;;;12.30;99.90;;;;;;5032266;28;20561;-62
2023/03/30 10:02:26;;;;;;;21.13;9.07;;;12.30;99.90;;;;;;5031398;28;20383;-61
2023/03/30 10:04:52;;;;;;;12.10;4.80;;;12.40;99.90;;;;;;5030770;28;20094;-61
2023/03/30 10:07:28;;;;;;;21.15;5.88;;;12.40;99.90;;;;;;5031783;28;20052;-62
2023/03/30 10:09:56;;;;;;;12.15;4.38;;;12.40;99.90;;;;;;5027456;28;20045;-61
2023/03/30 10:12:24;;;;;;;11.65;4.55;;;12.40;99.90;;;;;;5048831;28;20052;-61
2023/03/30 10:14:55;;;;;;;20.90;5.30;;;12.40;99.90;;;;;;5029438;28;20099;-61
2023/03/30 10:17:25;;;;;;;29.05;18.35;;;12.40;99.90;;;;;;5011209;28;20622;-61
2023/03/30 10:20:16;;;;;;;11.05;4.68;;;12.40;99.90;;;;;;5012374;28;20057;-61
2023/03/30 10:23:13;;;;;;;11.77;4.15;;;12.50;99.90;;;;;;5011684;28;20081;-61
2023/03/30 10:25:41;;;;;;;20.70;7.13;;;12.50;99.90;;;;;;5010778;28;20075;-61
2023/03/30 10:28:26;;;;;;;30.48;11.95;;;12.50;99.90;;;;;;5015069;28;20076;-62
2023/03/30 10:30:58;;;;;;;24.30;8.50;;;12.60;99.90;;;;;;5043960;28;20119;-62
2023/03/30 10:33:26;;;;;;;19.98;5.78;;;12.60;99.90;;;;;;5014080;28;20512;-62
2023/03/30 10:35:55;;;;;;;27.15;7.85;;;12.60;99.90;;;;;;5032725;28;20088;-62
2023/03/30 10:38:22;;;;;;;20.50;5.05;;;12.60;99.90;;;;;;5031137;28;20466;-61
2023/03/30 10:40:57;;;;;;;20.00;8.43;;;12.60;99.90;;;;;;5034137;28;20041;-70
2023/03/30 10:43:30;;;;;;;90.03;66.95;;;12.60;99.90;;;;;;5049867;28;20049;-69
2023/03/30 10:45:57;;;;;;;26.23;9.45;;;12.50;99.90;;;;;;5034097;28;20425;-69
2023/03/30 10:48:35;;;;;;;30.88;13.38;;;12.50;99.90;;;;;;5033688;28;20087;-68
2023/03/30 10:51:34;;;;;;;24.10;6.70;;;12.50;99.90;;;;;;5050787;28;20040;-67
2023/03/30 10:54:18;;;;;;;17.85;5.22;;;12.50;99.90;;;;;;5032804;28;20486;-67
2023/03/30 10:56:52;;;;;;;23.00;6.35;;;12.50;99.90;;;;;;5017966;28;20043;-67
2023/03/30 10:59:32;;;;;;;22.10;7.18;;;12.60;99.90;;;;;;5033303;28;20159;-68
2023/03/30 11:02:13;;;;;;;20.05;5.65;;;12.80;99.90;;;;;;5034124;28;20116;-67
2023/03/30 11:04:46;;;;;;;15.90;4.63;;;12.90;99.90;;;;;;5014589;28;20041;-68
2023/03/30 11:07:25;;;;;;;24.75;6.15;;;13.00;99.90;;;;;;5029386;28;20041;-67
2023/03/30 11:10:03;;;;;;;20.35;4.82;;;13.00;99.90;;;;;;5034447;28;20044;-67
2023/03/30 11:12:35;;;;;;;17.27;4.72;;;13.10;99.90;;;;;;5051144;28;20041;-67
2023/03/30 11:15:26;;;;;;;21.05;5.90;;;13.10;99.90;;;;;;5052129;28;20033;-68
2023/03/30 11:18:13;;;;;;;30.40;6.55;;;13.20;99.90;;;;;;5052290;28;20048;-68
2023/03/30 11:20:46;;;;;;;17.20;5.13;;;13.20;99.90;;;;;;5047172;28;20042;-68
2023/03/30 11:23:39;;;;;;;16.58;4.93;;;13.30;99.90;;;;;;5031807;28;20045;-68
2023/03/30 11:26:08;;;;;;;23.63;5.82;;;13.30;99.90;;;;;;5013142;28;20045;-69
2023/03/30 11:28:53;;;;;;;20.15;4.82;;;13.30;99.90;;;;;;5032137;28;20048;-69
2023/03/30 11:31:44;;;;;;;17.92;5.43;;;13.40;99.90;;;;;;5013911;28;20480;-69
2023/03/30 11:34:13;;;;;;;20.02;5.60;;;13.30;99.90;;;;;;4985423;28;20057;-67
2023/03/30 11:36:42;;;;;;;23.98;6.18;;;13.40;99.90;;;;;;4996570;28;20091;-69
2023/03/30 11:39:13;;;;;;;19.05;5.43;;;13.40;99.90;;;;;;5013734;28;20045;-69
2023/03/30 11:41:58;;;;;;;17.95;5.82;;;13.40;99.90;;;;;;4997013;28;20042;-68
2023/03/30 11:44:24;;;;;;;;;;;13.50;99.90;;;;;;5032179;28;20061;-68
2023/03/30 11:46:56;;;;;;;21.50;5.75;;;13.50;99.90;;;;;;5032243;28;19940;-67
2023/03/30 11:49:50;;;;;;;25.35;8.73;;;13.50;99.90;;;;;;5015023;28;20100;-67
2023/03/30 11:52:35;;;;;;;18.98;5.47;;;13.60;99.90;;;;;;5030415;28;20096;-68
2023/03/30 11:55:18;;;;;;;22.92;6.50;;;13.70;99.90;;;;;;5013253;28;20100;-68
2023/03/30 11:57:55;;;;;;;23.60;5.75;;;13.70;99.90;;;;;;5032108;28;20037;-68
2023/03/30 12:00:31;;;;;;;23.95;6.93;;;13.70;99.90;;;;;;5013596;28;20041;-67
2023/03/30 12:03:04;;;;;;;16.17;5.70;;;13.80;99.90;;;;;;5018815;28;20052;-68
2023/03/30 12:05:55;;;;;;;23.02;5.68;;;13.80;99.90;;;;;;5007466;28;20044;-69
2023/03/30 12:08:40;;;;;;;23.08;6.38;;;13.70;99.90;;;;;;5032915;28;20937;-69
2023/03/30 12:11:36;;;;;;;19.17;5.30;;;13.80;99.90;;;;;;5050996;28;20045;-71
2023/03/30 12:14:08;;;;;;;18.33;6.80;;;13.90;99.90;;;;;;5051060;28;20076;-71
2023/03/30 12:16:43;;;;;;;19.42;5.90;;;13.90;99.90;;;;;;5033234;28;20117;-72
2023/03/30 12:19:35;;;;;;;;;;;13.90;99.90;;;;;;5034083;28;20553;-72
2023/03/30 12:22:15;;;;;;;19.42;6.10;;;13.90;99.90;;;;;;5032791;28;19921;-72
2023/03/30 12:24:57;;;;;;;23.83;6.18;;;14.00;99.90;;;;;;5021220;28;20393;-72
2023/03/30 12:27:26;;;;;;;19.02;5.25;;;14.00;99.90;;;;;;5020114;28;20462;-70
2023/03/30 12:29:52;;;;;;;16.70;5.78;;;13.90;99.90;;;;;;5053947;28;20405;-71
2023/03/30 12:32:29;;;;;;;20.00;5.88;;;13.90;99.90;;;;;;5054225;28;20098;-71
2023/03/30 12:34:56;;;;;;;24.23;6.05;;;13.90;99.90;;;;;;5036964;28;20504;-72
2023/03/30 12:37:33;;;;;;;16.88;4.45;;;14.00;99.90;;;;;;5053354;28;20385;-72
2023/03/30 12:40:05;;;;;;;23.13;5.95;;;14.10;99.90;;;;;;5036669;28;20040;-71
2023/03/30 12:42:37;;;;;;;17.17;5.50;;;14.10;99.90;;;;;;5054463;28;20163;-72
2023/03/30 12:45:11;;;;;;;28.08;6.32;;;14.00;99.90;;;;;;5035711;28;20053;-72
2023/03/30 12:47:52;;;;;;;;;;;13.90;99.90;;;;;;5054926;28;20491;-72
2023/03/30 12:51:08;;;;;;;26.15;5.35;;;13.90;99.90;;;;;;5053719;28;19917;-72
2023/03/30 12:53:44;;;;;;;16.30;4.70;;;14.10;99.90;;;;;;4995978;28;20082;-72
2023/03/30 12:56:16;;;;;;;14.27;5.00;;;14.40;99.90;;;;;;4996333;28;20049;-72
2023/03/30 12:59:10;;;;;;;15.15;5.25;;;14.40;99.90;;;;;;5018267;28;20044;-70
2023/03/30 13:02:00;;;;;;;17.88;5.85;;;14.50;99.90;;;;;;5040892;28;20037;-71
2023/03/30 13:04:31;;;;;;;24.50;5.90;;;14.50;99.90;;;;;;5014863;28;20564;-72